createdAt,value
2018-09-19T00:02:24.883Z,19.30
2018-09-19T00:05:06.477Z,19.20
2018-09-19T00:07:47.283Z,19.20
2018-09-19T00:10:28.221Z,19.20
2018-09-19T00:13:09.643Z,19.20
2018-09-19T00:15:50.327Z,19.20
2018-09-19T00:18:30.980Z,19.10
2018-09-19T00:21:11.876Z,19.20
2018-09-19T00:23:52.851Z,19.20
2018-09-19T00:26:34.215Z,19.20
2018-09-19T00:29:15.076Z,19.20
2018-09-19T00:31:55.992Z,19.30
2018-09-19T00:34:36.476Z,19.40
2018-09-19T00:37:17.209Z,19.30
2018-09-19T00:39:57.769Z,19.40
2018-09-19T00:42:38.173Z,19.30
2018-09-19T00:45:18.854Z,19.30
2018-09-19T00:47:59.773Z,19.30
2018-09-19T00:50:40.654Z,19.30
2018-09-19T00:53:21.161Z,19.30
2018-09-19T00:56:01.845Z,19.20
2018-09-19T00:58:42.536Z,19.10
2018-09-19T01:01:22.968Z,19.10
2018-09-19T01:04:04.968Z,19.10
2018-09-19T01:06:45.777Z,19.10
2018-09-19T01:09:26.384Z,19.10
2018-09-19T01:12:07.301Z,19.10
2018-09-19T01:14:48.185Z,19.20
2018-09-19T01:17:28.595Z,19.30
2018-09-19T01:20:09.629Z,19.30
2018-09-19T01:22:50.422Z,19.30
2018-09-19T01:25:31.301Z,19.40
2018-09-19T01:28:11.907Z,19.40
2018-09-19T01:30:52.817Z,19.30
2018-09-19T01:33:33.272Z,19.10
2018-09-19T01:36:14.174Z,19.10
2018-09-19T01:38:54.593Z,19.10
2018-09-19T01:41:36.087Z,19.00
2018-09-19T01:44:16.582Z,19.00
2018-09-19T01:46:57.184Z,19.00
2018-09-19T01:49:38.201Z,19.00
2018-09-19T01:52:18.675Z,19.00
2018-09-19T01:54:59.849Z,19.00
2018-09-19T01:57:40.724Z,18.90
2018-09-19T02:00:21.738Z,18.90
2018-09-19T02:03:02.564Z,18.80
2018-09-19T02:05:43.112Z,18.80
2018-09-19T02:08:24.621Z,18.70
2018-09-19T02:11:06.203Z,18.70
2018-09-19T02:13:46.771Z,18.70
2018-09-19T02:16:27.402Z,18.70
2018-09-19T02:19:08.101Z,18.60
2018-09-19T02:21:48.980Z,18.70
2018-09-19T02:24:29.925Z,18.70
2018-09-19T02:27:11.473Z,18.70
2018-09-19T02:29:51.896Z,18.70
2018-09-19T02:32:33.053Z,18.60
2018-09-19T02:35:13.841Z,18.60
2018-09-19T02:37:54.887Z,18.50
2018-09-19T02:40:35.859Z,18.50
2018-09-19T02:43:17.787Z,18.50
2018-09-19T02:45:58.471Z,18.40
2018-09-19T02:48:38.934Z,18.30
2018-09-19T02:51:20.461Z,18.30
2018-09-19T02:54:01.663Z,18.20
2018-09-19T02:56:42.253Z,18.20
2018-09-19T02:59:23.009Z,18.20
2018-09-19T03:02:04.300Z,18.20
2018-09-19T03:04:44.876Z,18.30
2018-09-19T03:07:25.522Z,18.30
2018-09-19T03:10:06.459Z,18.20
2018-09-19T03:12:47.571Z,18.20
2018-09-19T03:15:28.335Z,18.20
2018-09-19T03:18:08.881Z,18.10
2018-09-19T03:20:49.912Z,18.00
2018-09-19T03:23:31.124Z,17.90
2018-09-19T03:26:12.039Z,17.90
2018-09-19T03:28:52.486Z,17.70
2018-09-19T03:31:32.922Z,17.60
2018-09-19T03:34:13.861Z,17.50
2018-09-19T03:36:54.402Z,17.30
2018-09-19T03:39:35.300Z,17.30
2018-09-19T03:42:16.039Z,17.20
2018-09-19T03:44:56.924Z,17.20
2018-09-19T03:47:37.649Z,17.10
2018-09-19T03:50:19.134Z,17.10
2018-09-19T03:52:59.551Z,17.00
2018-09-19T03:55:40.594Z,16.80
2018-09-19T03:58:21.098Z,16.80
2018-09-19T04:01:02.625Z,16.80
2018-09-19T04:03:43.193Z,16.70
2018-09-19T04:06:24.145Z,16.60
2018-09-19T04:09:09.101Z,16.70
2018-09-19T04:11:50.245Z,16.70
2018-09-19T04:14:31.150Z,16.70
2018-09-19T04:17:11.840Z,16.70
2018-09-19T04:19:52.666Z,16.70
2018-09-19T04:22:34.000Z,16.80
2018-09-19T04:25:14.494Z,16.70
2018-09-19T04:27:55.220Z,16.60
2018-09-19T04:30:36.003Z,16.50
2018-09-19T04:33:16.553Z,16.40
2018-09-19T04:35:57.225Z,16.40
2018-09-19T04:38:38.156Z,16.40
2018-09-19T04:41:18.632Z,16.40
2018-09-19T04:43:59.327Z,16.40
2018-09-19T04:46:40.593Z,16.40
2018-09-19T04:49:21.004Z,16.40
2018-09-19T04:52:01.686Z,16.40
2018-09-19T04:54:42.096Z,16.40
2018-09-19T04:57:22.593Z,16.40
2018-09-19T05:00:03.180Z,16.50
2018-09-19T05:02:44.921Z,16.60
2018-09-19T05:05:25.367Z,16.60
2018-09-19T05:08:06.454Z,16.60
2018-09-19T05:10:46.921Z,16.60
2018-09-19T05:13:27.845Z,16.60
2018-09-19T05:16:08.249Z,16.60
2018-09-19T05:18:49.278Z,16.60
2018-09-19T05:21:30.288Z,16.70
2018-09-19T05:24:10.816Z,16.80
2018-09-19T05:26:51.833Z,16.80
2018-09-19T05:29:32.408Z,16.90
2018-09-19T05:32:13.128Z,16.90
2018-09-19T05:34:53.611Z,16.90
2018-09-19T05:37:34.205Z,17.00
2018-09-19T05:40:14.854Z,17.00
2018-09-19T05:42:55.461Z,17.00
2018-09-19T05:45:36.408Z,17.10
2018-09-19T05:48:16.893Z,17.20
2018-09-19T05:50:57.549Z,17.20
2018-09-19T05:53:38.039Z,17.30
2018-09-19T05:56:18.999Z,17.50
2018-09-19T05:58:59.810Z,17.60
2018-09-19T06:01:40.643Z,17.90
2018-09-19T06:04:21.289Z,18.00
2018-09-19T06:07:02.429Z,18.10
2018-09-19T06:09:43.977Z,18.20
2018-09-19T06:12:24.430Z,18.20
2018-09-19T06:15:05.341Z,18.40
2018-09-19T06:17:46.045Z,18.50
2018-09-19T06:20:27.216Z,18.60
2018-09-19T06:23:08.265Z,18.60
2018-09-19T06:25:48.791Z,18.80
2018-09-19T06:28:29.528Z,19.00
2018-09-19T06:31:10.022Z,19.30
2018-09-19T06:33:50.641Z,19.50
2018-09-19T06:36:31.113Z,19.70
2018-09-19T06:39:12.486Z,20.10
2018-09-19T06:41:53.523Z,20.40
2018-09-19T06:44:34.073Z,20.40
2018-09-19T06:47:14.949Z,20.30
2018-09-19T06:49:55.846Z,20.30
2018-09-19T06:52:36.252Z,20.10
2018-09-19T06:55:17.425Z,20.10
2018-09-19T06:57:58.640Z,20.10
2018-09-19T07:00:39.169Z,20.20
2018-09-19T07:03:20.009Z,20.30
2018-09-19T07:06:00.664Z,20.40
2018-09-19T07:08:41.317Z,20.50
2018-09-19T07:11:21.975Z,20.70
2018-09-19T07:14:02.963Z,20.90
2018-09-19T07:16:43.562Z,21.00
2018-09-19T07:19:24.095Z,21.10
2018-09-19T07:22:04.838Z,21.20
2018-09-19T07:24:45.586Z,21.30
2018-09-19T07:27:26.680Z,21.50
2018-09-19T07:30:07.777Z,21.70
2018-09-19T07:32:48.691Z,21.90
2018-09-19T07:35:29.606Z,22.10
2018-09-19T07:38:10.968Z,22.50
2018-09-19T07:40:51.962Z,23.10
2018-09-19T07:43:32.421Z,23.10
2018-09-19T07:46:13.292Z,23.20
2018-09-19T07:48:54.600Z,23.60
2018-09-19T07:51:34.957Z,23.90
2018-09-19T07:54:15.807Z,24.10
2018-09-19T07:56:56.245Z,24.20
2018-09-19T07:59:36.760Z,24.30
2018-09-19T08:02:17.717Z,24.40
2018-09-19T08:04:58.225Z,24.90
2018-09-19T08:07:38.698Z,25.00
2018-09-19T08:10:19.892Z,25.00
2018-09-19T08:13:01.333Z,25.30
2018-09-19T08:15:43.570Z,26.20
2018-09-19T08:18:24.085Z,27.60
2018-09-19T08:21:05.074Z,27.80
2018-09-19T08:23:45.876Z,27.50
2018-09-19T08:26:27.287Z,26.80
2018-09-19T08:29:07.922Z,25.60
2018-09-19T08:31:48.532Z,24.90
2018-09-19T08:34:29.293Z,24.40
2018-09-19T08:37:09.821Z,24.50
2018-09-19T08:39:52.244Z,25.40
2018-09-19T08:42:32.744Z,26.70
2018-09-19T08:45:13.557Z,28.60
2018-09-19T08:47:54.356Z,30.60
2018-09-19T08:50:35.608Z,30.70
2018-09-19T08:53:16.303Z,30.10
2018-09-19T08:55:57.045Z,28.60
2018-09-19T08:58:39.592Z,27.50
2018-09-19T09:01:21.484Z,26.90
2018-09-19T09:04:02.742Z,26.80
2018-09-19T09:06:43.844Z,26.50
2018-09-19T09:09:24.689Z,26.10
2018-09-19T09:12:06.796Z,26.20
2018-09-19T09:14:47.514Z,26.90
2018-09-19T09:17:28.208Z,28.20
2018-09-19T09:20:08.949Z,30.30
2018-09-19T09:22:49.761Z,32.40
2018-09-19T09:25:30.868Z,33.50
2018-09-19T09:28:11.727Z,34.90
2018-09-19T09:30:52.225Z,34.90
2018-09-19T09:33:32.641Z,34.20
2018-09-19T09:36:15.934Z,34.90
2018-09-19T09:38:57.099Z,35.50
2018-09-19T09:41:38.793Z,36.40
2018-09-19T09:44:19.851Z,36.10
2018-09-19T09:47:00.719Z,36.00
2018-09-19T09:49:41.347Z,36.30
2018-09-19T09:52:21.830Z,36.70
2018-09-19T09:55:02.810Z,37.10
2018-09-19T09:57:43.722Z,37.10
2018-09-19T10:00:30.055Z,37.20
2018-09-19T10:03:12.144Z,37.00
2018-09-19T10:05:53.178Z,36.70
2018-09-19T10:08:35.815Z,37.20
2018-09-19T10:11:16.539Z,37.60
2018-09-19T10:13:57.281Z,36.60
2018-09-19T10:16:37.870Z,36.90
2018-09-19T10:19:18.748Z,37.30
2018-09-19T10:21:59.635Z,37.80
2018-09-19T10:24:40.555Z,37.70
2018-09-19T10:27:21.042Z,37.20
2018-09-19T10:30:01.713Z,37.40
2018-09-19T10:32:42.449Z,37.40
2018-09-19T10:35:23.035Z,38.40
2018-09-19T10:38:03.704Z,37.70
2018-09-19T10:40:45.916Z,37.60
2018-09-19T10:43:26.717Z,37.10
2018-09-19T10:46:07.741Z,37.80
2018-09-19T10:48:49.087Z,37.90
2018-09-19T10:51:29.620Z,37.90
2018-09-19T10:54:10.273Z,37.50
2018-09-19T10:56:50.876Z,37.70
2018-09-19T10:59:32.077Z,37.50
2018-09-19T11:02:13.401Z,37.40
2018-09-19T11:04:54.377Z,38.00
2018-09-19T11:07:35.196Z,38.30
2018-09-19T11:10:16.439Z,38.60
2018-09-19T11:12:57.399Z,38.20
2018-09-19T11:15:38.943Z,37.40
2018-09-19T11:18:19.505Z,37.80
2018-09-19T11:21:00.479Z,39.50
2018-09-19T11:23:41.674Z,40.40
2018-09-19T11:26:22.498Z,40.10
2018-09-19T11:29:03.397Z,39.60
2018-09-19T11:31:44.005Z,39.70
2018-09-19T11:34:24.936Z,39.70
2018-09-19T11:37:05.647Z,39.90
2018-09-19T11:39:46.432Z,39.60
2018-09-19T11:42:27.060Z,39.60
2018-09-19T11:45:08.090Z,39.40
2018-09-19T11:47:49.133Z,39.60
2018-09-19T11:50:30.154Z,39.20
2018-09-19T11:53:16.847Z,38.90
2018-09-19T11:55:59.077Z,39.30
2018-09-19T11:58:39.925Z,39.90
2018-09-19T12:01:21.917Z,39.90
2018-09-19T12:04:04.085Z,40.30
2018-09-19T12:06:44.957Z,40.20
2018-09-19T12:09:25.567Z,40.00
2018-09-19T12:12:07.225Z,39.70
2018-09-19T12:14:47.989Z,39.60
2018-09-19T12:17:28.405Z,39.10
2018-09-19T12:20:09.157Z,39.30
2018-09-19T12:22:50.192Z,37.80
2018-09-19T12:25:31.354Z,38.30
2018-09-19T12:28:12.430Z,37.90
2018-09-19T12:30:53.442Z,37.30
2018-09-19T12:33:34.952Z,37.60
2018-09-19T12:36:15.862Z,38.00
2018-09-19T12:38:57.104Z,37.90
2018-09-19T12:41:38.734Z,37.30
2018-09-19T12:44:19.522Z,37.30
2018-09-19T12:47:00.420Z,37.30
2018-09-19T12:49:40.935Z,37.40
2018-09-19T12:52:21.361Z,38.20
2018-09-19T12:55:01.946Z,38.30
2018-09-19T12:57:42.953Z,38.60
2018-09-19T13:00:23.595Z,39.00
2018-09-19T13:03:04.635Z,38.30
2018-09-19T13:05:45.489Z,38.40
2018-09-19T13:08:26.071Z,38.60
2018-09-19T13:11:06.947Z,38.70
2018-09-19T13:13:47.387Z,38.90
2018-09-19T13:16:28.162Z,39.10
2018-09-19T13:19:09.498Z,39.10
2018-09-19T13:21:50.510Z,38.60
2018-09-19T13:24:31.161Z,38.30
2018-09-19T13:27:11.746Z,38.10
2018-09-19T13:29:52.173Z,38.30
2018-09-19T13:32:32.843Z,38.10
2018-09-19T13:35:13.316Z,38.10
2018-09-19T13:37:54.976Z,38.10
2018-09-19T13:40:35.726Z,38.00
2018-09-19T13:43:16.684Z,38.20
2018-09-19T13:45:57.304Z,38.10
2018-09-19T13:48:38.612Z,37.70
2018-09-19T13:51:23.160Z,37.00
2018-09-19T13:54:04.345Z,37.00
2018-09-19T13:56:45.317Z,37.20
2018-09-19T13:59:25.859Z,37.40
2018-09-19T14:02:06.737Z,37.30
2018-09-19T14:04:47.118Z,37.10
2018-09-19T14:07:27.674Z,37.30
2018-09-19T14:10:08.339Z,37.30
2018-09-19T14:12:48.800Z,36.80
2018-09-19T14:15:29.468Z,36.30
2018-09-19T14:18:11.093Z,36.00
2018-09-19T14:20:52.099Z,35.90
2018-09-19T14:23:32.978Z,35.90
2018-09-19T14:26:16.346Z,36.10
2018-09-19T14:28:57.186Z,35.90
2018-09-19T14:31:37.989Z,35.50
2018-09-19T14:34:19.048Z,35.00
2018-09-19T14:37:00.142Z,34.90
2018-09-19T14:39:40.896Z,34.90
2018-09-19T14:42:21.520Z,35.10
2018-09-19T14:45:02.630Z,35.20
2018-09-19T14:47:43.915Z,34.80
2018-09-19T14:50:26.039Z,34.40
2018-09-19T14:53:07.497Z,34.40
2018-09-19T14:55:48.090Z,34.30
2018-09-19T14:58:29.855Z,34.20
2018-09-19T15:01:10.496Z,34.20
2018-09-19T15:03:51.493Z,34.20
2018-09-19T15:06:32.390Z,34.10
2018-09-19T15:09:13.710Z,33.90
2018-09-19T15:11:54.217Z,33.80
2018-09-19T15:14:34.882Z,33.40
2018-09-19T15:17:15.504Z,33.00
2018-09-19T15:19:57.354Z,32.70
2018-09-19T15:22:38.327Z,32.30
2018-09-19T15:25:19.597Z,32.20
2018-09-19T15:28:01.047Z,31.90
2018-09-19T15:30:42.153Z,31.80
2018-09-19T15:33:22.846Z,31.40
2018-09-19T15:36:03.600Z,31.10
2018-09-19T15:38:44.835Z,30.90
2018-09-19T15:41:25.536Z,31.10
2018-09-19T15:44:06.163Z,30.80
2018-09-19T15:46:46.868Z,30.50
2018-09-19T15:49:27.645Z,30.60
2018-09-19T15:52:08.979Z,30.30
2018-09-19T15:54:51.111Z,30.10
2018-09-19T15:57:32.456Z,29.80
2018-09-19T16:00:13.724Z,29.60
2018-09-19T16:02:57.422Z,29.30
2018-09-19T16:05:38.093Z,29.10
2018-09-19T16:08:18.917Z,29.00
2018-09-19T16:10:59.731Z,28.90
2018-09-19T16:13:40.595Z,28.80
2018-09-19T16:16:22.167Z,28.70
2018-09-19T16:19:03.060Z,28.60
2018-09-19T16:21:43.643Z,28.50
2018-09-19T16:24:24.755Z,28.40
2018-09-19T16:27:05.311Z,28.30
2018-09-19T16:29:45.901Z,28.20
2018-09-19T16:32:26.513Z,28.20
2018-09-19T16:35:09.361Z,28.10
2018-09-19T16:37:50.101Z,28.10
2018-09-19T16:40:31.657Z,27.90
2018-09-19T16:43:12.893Z,27.70
2018-09-19T16:45:55.322Z,27.60
2018-09-19T16:48:44.271Z,27.60
2018-09-19T16:51:25.062Z,27.50
2018-09-19T16:54:05.912Z,27.40
2018-09-19T16:56:46.805Z,27.20
2018-09-19T16:59:27.878Z,27.00
2018-09-19T17:02:09.163Z,26.70
2018-09-19T17:04:50.081Z,26.40
2018-09-19T17:07:31.691Z,26.10
2018-09-19T17:10:12.163Z,25.80
2018-09-19T17:12:52.679Z,25.60
2018-09-19T17:15:33.173Z,25.40
2018-09-19T17:18:14.870Z,25.20
2018-09-19T17:20:56.228Z,25.00
2018-09-19T17:23:37.000Z,24.90
2018-09-19T17:26:17.932Z,24.80
2018-09-19T17:28:58.537Z,24.60
2018-09-19T17:31:39.399Z,24.40
2018-09-19T17:34:20.132Z,24.30
2018-09-19T17:37:00.890Z,24.30
2018-09-19T17:39:41.750Z,24.10
2018-09-19T17:42:22.223Z,24.10
2018-09-19T17:45:02.686Z,24.00
2018-09-19T17:47:43.265Z,23.90
2018-09-19T17:50:24.277Z,23.90
2018-09-19T17:53:05.821Z,23.80
2018-09-19T17:55:46.306Z,23.70
2018-09-19T17:58:27.222Z,23.60
2018-09-19T18:01:08.344Z,23.50
2018-09-19T18:03:48.798Z,23.50
2018-09-19T18:06:29.453Z,23.50
2018-09-19T18:09:10.010Z,23.40
2018-09-19T18:11:51.794Z,23.30
2018-09-19T18:14:32.289Z,23.30
2018-09-19T18:17:14.360Z,23.20
2018-09-19T18:19:55.211Z,23.20
2018-09-19T18:22:35.785Z,23.20
2018-09-19T18:25:16.656Z,23.30
2018-09-19T18:27:57.405Z,23.50
2018-09-19T18:30:39.424Z,23.50
2018-09-19T18:33:20.436Z,23.50
2018-09-19T18:36:01.145Z,23.50
2018-09-19T18:38:42.062Z,23.60
2018-09-19T18:41:23.968Z,23.70
2018-09-19T18:44:04.395Z,23.90
2018-09-19T18:46:45.014Z,23.90
2018-09-19T18:49:25.847Z,24.00
2018-09-19T18:52:06.882Z,24.00
2018-09-19T18:54:47.776Z,23.90
2018-09-19T18:57:28.385Z,23.90
2018-09-19T19:00:10.717Z,23.80
2018-09-19T19:02:52.125Z,23.80
2018-09-19T19:05:33.002Z,23.70
2018-09-19T19:08:13.802Z,23.60
2018-09-19T19:10:55.117Z,23.70
2018-09-19T19:13:35.603Z,23.60
2018-09-19T19:16:16.309Z,23.60
2018-09-19T19:18:56.913Z,23.60
2018-09-19T19:21:37.617Z,23.60
2018-09-19T19:24:18.420Z,23.60
2018-09-19T19:26:58.933Z,23.60
2018-09-19T19:29:39.713Z,23.60
2018-09-19T19:32:20.962Z,23.50
2018-09-19T19:35:01.329Z,23.50
2018-09-19T19:37:41.984Z,23.40
2018-09-19T19:40:22.817Z,23.40
2018-09-19T19:43:03.296Z,23.40
2018-09-19T19:45:43.801Z,23.40
2018-09-19T19:48:24.329Z,23.30
2018-09-19T19:51:05.081Z,23.30
2018-09-19T19:53:45.790Z,23.30
2018-09-19T19:56:26.394Z,23.30
2018-09-19T19:59:07.268Z,23.30
2018-09-19T20:01:48.236Z,23.20
2018-09-19T20:04:29.122Z,23.10
2018-09-19T20:07:09.850Z,23.10
2018-09-19T20:09:50.809Z,23.10
2018-09-19T20:12:31.403Z,23.10
2018-09-19T20:15:12.479Z,23.10
2018-09-19T20:17:53.049Z,23.10
2018-09-19T20:20:35.746Z,23.00
2018-09-19T20:23:17.002Z,22.90
2018-09-19T20:25:57.820Z,23.00
2018-09-19T20:28:38.660Z,22.90
2018-09-19T20:31:19.654Z,22.80
2018-09-19T20:34:00.598Z,22.80
2018-09-19T20:36:41.752Z,22.80
2018-09-19T20:39:22.809Z,22.80
2018-09-19T20:42:03.261Z,22.80
2018-09-19T20:44:44.107Z,22.90
2018-09-19T20:47:24.734Z,22.80
2018-09-19T20:50:05.689Z,22.70
2018-09-19T20:52:53.306Z,22.70
2018-09-19T20:55:34.254Z,22.80
2018-09-19T20:58:15.046Z,22.90
2018-09-19T21:00:55.721Z,22.90
2018-09-19T21:03:36.325Z,22.90
2018-09-19T21:06:17.105Z,22.90
2018-09-19T21:08:57.741Z,22.80
2018-09-19T21:11:38.346Z,22.80
2018-09-19T21:14:19.616Z,22.70
2018-09-19T21:17:00.583Z,22.70
2018-09-19T21:19:41.216Z,22.60
2018-09-19T21:22:22.024Z,22.60
2018-09-19T21:25:02.634Z,22.50
2018-09-19T21:27:43.310Z,22.40
2018-09-19T21:30:24.698Z,22.40
2018-09-19T21:33:06.364Z,22.40
2018-09-19T21:35:46.765Z,22.30
2018-09-19T21:38:27.784Z,22.30
2018-09-19T21:41:08.505Z,22.30
2018-09-19T21:43:53.460Z,22.10
2018-09-19T21:46:34.052Z,22.00
2018-09-19T21:49:14.487Z,21.90
2018-09-19T21:51:55.452Z,21.90
2018-09-19T21:54:36.053Z,21.80
2018-09-19T21:57:16.521Z,21.70
2018-09-19T21:59:57.474Z,21.80
2018-09-19T22:02:38.097Z,21.80
2018-09-19T22:05:19.322Z,21.80
2018-09-19T22:08:00.013Z,21.60
2018-09-19T22:10:40.776Z,21.50
2018-09-19T22:13:21.398Z,21.30
2018-09-19T22:16:02.175Z,21.20
2018-09-19T22:18:43.121Z,21.10
2018-09-19T22:21:23.613Z,21.00
2018-09-19T22:24:04.214Z,20.90
2018-09-19T22:26:45.179Z,20.90
2018-09-19T22:29:26.756Z,20.80
2018-09-19T22:32:08.380Z,20.80
2018-09-19T22:34:49.195Z,20.70
2018-09-19T22:37:29.749Z,20.60
2018-09-19T22:40:10.521Z,20.50
2018-09-19T22:42:51.480Z,20.50
2018-09-19T22:45:32.081Z,20.40
2018-09-19T22:48:12.565Z,20.40
2018-09-19T22:50:54.720Z,20.30
2018-09-19T22:53:35.639Z,20.30
2018-09-19T22:56:16.183Z,20.30
2018-09-19T22:58:56.850Z,20.30
2018-09-19T23:01:37.605Z,20.20
2018-09-19T23:04:18.543Z,20.10
2018-09-19T23:06:59.429Z,20.00
2018-09-19T23:09:40.362Z,20.00
2018-09-19T23:12:21.336Z,20.00
2018-09-19T23:15:02.393Z,19.90
2018-09-19T23:17:42.880Z,20.00
2018-09-19T23:20:23.859Z,19.90
2018-09-19T23:23:04.476Z,20.00
2018-09-19T23:25:45.289Z,20.00
2018-09-19T23:28:25.854Z,20.10
2018-09-19T23:31:07.133Z,20.20
2018-09-19T23:33:48.081Z,20.10
2018-09-19T23:36:28.772Z,20.00
2018-09-19T23:39:10.771Z,19.90
2018-09-19T23:41:51.389Z,19.90
2018-09-19T23:44:32.123Z,19.80
2018-09-19T23:47:12.667Z,19.70
2018-09-19T23:49:53.242Z,19.70
2018-09-19T23:52:34.584Z,19.60
2018-09-19T23:55:15.149Z,19.50
2018-09-19T23:57:56.290Z,19.50
